Time;durP1;ratioP1;P1;durP2;ratioP2;P2;SDS_P1;SDS_P2;PMS_P1;PMS_P2;Temp;Humidity;BMP_temperature;BMP_pressure;BME280_temperature;BME280_humidity;BME280_pressure;Samples;Min_cycle;Max_cycle;Signal;HPM_P1;HPM_P2
2022/09/23 00:00:16;;;;;;;;;;;;;;;6.17;100.00;98574.63;5022833;28;19925;-44
2022/09/23 00:02:47;;;;;;;;;;;;;;;6.13;100.00;98562.59;5017586;28;19932;-43
2022/09/23 00:05:14;;;;;;;;;;;;;;;6.10;100.00;98569.72;5018820;28;19935;-43
2022/09/23 00:07:42;;;;;;;;;;;;;;;6.09;100.00;98563.63;5026718;28;19925;-44
2022/09/23 00:10:10;;;;;;;;;;;;;;;6.08;100.00;98566.28;5009887;28;20023;-43
2022/09/23 00:12:38;;;;;;;;;;;;;;;6.07;100.00;98562.81;5026162;28;19929;-43
2022/09/23 00:15:05;;;;;;;;;;;;;;;6.05;100.00;98563.78;5025664;28;19936;-44
2022/09/23 00:17:32;;;;;;;;;;;;;;;6.06;100.00;98561.13;5027653;28;19925;-44
2022/09/23 00:19:59;;;;;;;;;;;;;;;6.08;100.00;98563.66;5024914;28;19929;-45
2022/09/23 00:22:26;;;;;;;;;;;;;;;6.01;100.00;98562.19;5028161;28;20012;-43
2022/09/23 00:24:53;;;;;;;;;;;;;;;6.12;100.00;98563.50;5027783;28;19925;-44
2022/09/23 00:27:22;;;;;;;;;;;;;;;6.13;100.00;98564.34;5026692;28;19932;-44
2022/09/23 00:29:49;;;;;;;;;;;;;;;6.07;100.00;98562.81;5017407;28;19983;-43
2022/09/23 00:32:17;;;;;;;;;;;;;;;6.12;100.00;98560.91;5017699;28;19925;-43
2022/09/23 00:34:44;;;;;;;;;;;;;;;6.18;100.00;98555.41;5010681;28;19926;-43
2022/09/23 00:37:11;;;;;;;;;;;;;;;6.15;100.00;98550.34;5008854;28;19934;-44
2022/09/23 00:39:38;;;;;;;;;;;;;;;6.12;100.00;98553.06;5010278;28;19968;-45
2022/09/23 00:42:07;;;;;;;;;;;;;;;6.15;100.00;98544.25;5027309;28;19925;-43
2022/09/23 00:44:44;;;;;;;;;;;;;;;6.14;100.00;98543.38;4988990;28;19925;-44
2022/09/23 00:47:15;;;;;;;;;;;;;;;6.11;100.00;98548.75;5022776;28;20416;-44
2022/09/23 00:49:44;;;;;;;;;;;;;;;5.99;100.00;98548.38;4996766;28;19925;-43
2022/09/23 00:52:13;;;;;;;;;;;;;;;5.89;100.00;98547.81;5024772;28;19960;-45
2022/09/23 00:54:41;;;;;;;;;;;;;;;5.87;100.00;98547.00;5019392;28;20344;-43
2022/09/23 00:57:10;;;;;;;;;;;;;;;5.84;100.00;98543.69;4991736;28;21754;-44
2022/09/23 00:59:37;;;;;;;;;;;;;;;5.82;100.00;98541.13;5007695;28;19926;-43
2022/09/23 01:02:08;;;;;;;;;;;;;;;5.77;100.00;98537.81;5011221;28;19960;-44
2022/09/23 01:04:35;;;;;;;;;;;;;;;5.73;100.00;98538.84;5014157;28;20347;-44
2022/09/23 01:07:03;;;;;;;;;;;;;;;5.77;100.00;98535.19;5008582;28;19929;-47
2022/09/23 01:09:30;;;;;;;;;;;;;;;5.72;100.00;98539.75;5023602;28;20654;-44
2022/09/23 01:12:04;;;;;;;;;;;;;;;5.75;100.00;98539.66;5028079;28;20419;-43
2022/09/23 01:14:37;;;;;;;;;;;;;;;5.63;100.00;98540.09;5011842;28;19932;-46
2022/09/23 01:17:06;;;;;;;;;;;;;;;5.63;100.00;98540.09;5031976;28;19933;-46
2022/09/23 01:19:44;;;;;;;;;;;;;;;5.68;100.00;98540.78;5012368;28;19979;-45
2022/09/23 01:22:17;;;;;;;;;;;;;;;5.64;100.00;98531.34;5012502;28;20024;-44
2022/09/23 01:24:51;;;;;;;;;;;;;;;5.68;100.00;98537.31;5022564;28;19925;-43
2022/09/23 01:27:37;;;;;;;;;;;;;;;5.59;100.00;98538.47;5023218;28;19925;-47
2022/09/23 01:30:22;;;;;;;;;;;;;;;5.56;100.00;98543.84;5015290;28;19929;-44
2022/09/23 01:32:56;;;;;;;;;;;;;;;5.53;100.00;98538.72;5001483;28;19929;-43
2022/09/23 01:35:29;;;;;;;;;;;;;;;5.50;100.00;98536.22;5030975;28;20294;-43
2022/09/23 01:38:00;;;;;;;;;;;;;;;5.46;100.00;98534.63;5017079;28;19956;-43
2022/09/23 01:40:31;;;;;;;;;;;;;;;5.54;100.00;98542.16;5023378;28;19925;-44
2022/09/23 01:43:03;;;;;;;;;;;;;;;5.45;100.00;98545.13;5028998;28;19951;-43
2022/09/23 01:45:34;;;;;;;;;;;;;;;5.48;100.00;98545.00;5016699;28;19925;-45
2022/09/23 01:48:09;;;;;;;;;;;;;;;5.42;100.00;98543.47;5021414;28;19929;-45
2022/09/23 01:50:56;;;;;;;;;;;;;;;5.43;100.00;98541.69;5024476;28;19979;-45
2022/09/23 01:53:27;;;;;;;;;;;;;;;5.45;100.00;98540.75;5013568;28;20372;-43
2022/09/23 01:55:57;;;;;;;;;;;;;;;5.47;100.00;98540.72;5023603;28;19940;-43
2022/09/23 01:58:26;;;;;;;;;;;;;;;5.53;100.00;98543.94;5028578;28;20636;-44
2022/09/23 02:00:57;;;;;;;;;;;;;;;5.56;100.00;98541.22;5012770;28;19925;-43
2022/09/23 02:03:28;;;;;;;;;;;;;;;5.52;100.00;98536.16;5013568;28;20346;-45
2022/09/23 02:05:58;;;;;;;;;;;;;;;5.56;100.00;98541.22;5022113;28;19951;-44
2022/09/23 02:08:28;;;;;;;;;;;;;;;5.47;100.00;98536.31;5024916;28;19925;-44
2022/09/23 02:10:57;;;;;;;;;;;;;;;5.46;100.00;98537.25;5007894;28;19964;-44
2022/09/23 02:13:28;;;;;;;;;;;;;;;5.44;100.00;98536.44;5011980;28;19929;-44
2022/09/23 02:16:00;;;;;;;;;;;;;;;5.41;100.00;98539.16;5013142;28;19926;-44
2022/09/23 02:18:30;;;;;;;;;;;;;;;5.42;100.00;98540.00;4994688;28;19930;-44
2022/09/23 02:21:00;;;;;;;;;;;;;;;5.36;100.00;98540.25;4989176;28;20031;-44
2022/09/23 02:23:30;;;;;;;;;;;;;;;5.37;100.00;98534.09;5019805;28;19929;-43
2022/09/23 02:26:00;;;;;;;;;;;;;;;5.28;100.00;98532.66;5017307;28;19935;-44
2022/09/23 02:28:32;;;;;;;;;;;;;;;5.19;100.00;98529.53;5011247;28;20340;-44
2022/09/23 02:31:06;;;;;;;;;;;;;;;5.12;100.00;98533.25;5005972;28;19925;-44
2022/09/23 02:33:37;;;;;;;;;;;;;;;5.13;100.00;98534.94;5013618;28;19925;-46
2022/09/23 02:36:07;;;;;;;;;;;;;;;5.06;100.00;98543.88;5010371;28;19925;-43
2022/09/23 02:38:37;;;;;;;;;;;;;;;5.05;100.00;98536.97;5025525;28;20344;-44
2022/09/23 02:41:08;;;;;;;;;;;;;;;4.99;100.00;98551.06;5024260;28;20346;-44
2022/09/23 02:43:38;;;;;;;;;;;;;;;5.01;100.00;98549.28;5031281;28;19925;-44
2022/09/23 02:46:07;;;;;;;;;;;;;;;4.96;100.00;98551.16;5016281;28;19925;-44
2022/09/23 02:48:37;;;;;;;;;;;;;;;5.02;100.00;98545.75;5008481;28;19958;-47
2022/09/23 02:51:05;;;;;;;;;;;;;;;4.97;100.00;98547.69;5028102;28;19925;-44
2022/09/23 02:53:33;;;;;;;;;;;;;;;4.93;100.00;98545.22;5011835;28;20396;-45
2022/09/23 02:56:00;;;;;;;;;;;;;;;4.90;100.00;98546.19;5006367;28;19980;-46
2022/09/23 02:58:28;;;;;;;;;;;;;;;4.87;100.00;98550.63;5012163;28;19930;-43
2022/09/23 03:01:00;;;;;;;;;;;;;;;4.82;100.00;98547.34;5011445;28;19961;-45
2022/09/23 03:03:33;;;;;;;;;;;;;;;4.74;100.00;98544.97;5020052;28;20335;-44
2022/09/23 03:06:07;;;;;;;;;;;;;;;4.71;100.00;98547.69;5020445;28;19980;-44
2022/09/23 03:08:40;;;;;;;;;;;;;;;4.61;100.00;98541.06;5017552;28;19925;-45
2022/09/23 03:11:09;;;;;;;;;;;;;;;4.66;100.00;98539.16;5023512;28;19925;-43
2022/09/23 03:13:42;;;;;;;;;;;;;;;4.62;100.00;98538.41;5029557;28;19939;-43
2022/09/23 03:16:15;;;;;;;;;;;;;;;4.57;100.00;98536.84;5027761;28;19979;-44
2022/09/23 03:18:45;;;;;;;;;;;;;;;4.55;100.00;98529.09;5012359;28;19940;-44
2022/09/23 03:21:16;;;;;;;;;;;;;;;4.48;100.00;98530.19;5011683;28;19925;-43
2022/09/23 03:23:45;;;;;;;;;;;;;;;4.39;100.00;98527.84;5013095;28;19926;-45
2022/09/23 03:26:13;;;;;;;;;;;;;;;4.36;100.00;98530.59;5007648;28;19983;-45
2022/09/23 03:28:43;;;;;;;;;;;;;;;4.44;100.00;98528.59;5011591;28;19925;-44
2022/09/23 03:31:10;;;;;;;;;;;;;;;4.34;100.00;98534.13;5011168;28;19965;-44
2022/09/23 03:33:38;;;;;;;;;;;;;;;4.26;100.00;98533.50;5011968;28;19925;-44
2022/09/23 03:38:57;;;;;;;;;;;;;;;4.14;100.00;98539.97;4985536;28;20499;-46
2022/09/23 03:41:28;;;;;;;;;;;;;;;4.15;100.00;98539.06;5011476;28;19981;-43
2022/09/23 03:43:57;;;;;;;;;;;;;;;4.14;100.00;98545.16;4992464;28;20387;-43
2022/09/23 03:46:26;;;;;;;;;;;;;;;4.13;100.00;98538.22;5026152;28;20022;-43
2022/09/23 03:48:54;;;;;;;;;;;;;;;4.10;100.00;98529.69;5015901;28;20384;-43
2022/09/23 03:51:22;;;;;;;;;;;;;;;4.16;100.00;98539.91;5026590;28;19925;-43
2022/09/23 03:53:50;;;;;;;;;;;;;;;4.16;100.00;98532.94;5009880;28;20308;-44
2022/09/23 03:56:18;;;;;;;;;;;;;;;4.11;100.00;98537.44;5012876;28;20145;-43
2022/09/23 03:58:45;;;;;;;;;;;;;;;4.09;100.00;98535.78;5019300;28;19980;-43
2022/09/23 04:01:13;;;;;;;;;;;;;;;4.08;100.00;98529.72;5011789;28;19926;-46
2022/09/23 04:03:41;;;;;;;;;;;;;;;4.03;100.00;98529.03;5016953;28;19964;-44
2022/09/23 04:06:08;;;;;;;;;;;;;;;4.04;100.00;98532.47;5027442;28;19960;-44
2022/09/23 04:08:35;;;;;;;;;;;;;;;4.07;100.00;98528.03;5009084;28;20364;-43
2022/09/23 04:11:03;;;;;;;;;;;;;;;4.00;100.00;98523.03;5020654;28;19960;-45
2022/09/23 04:13:33;;;;;;;;;;;;;;;3.94;100.00;98518.03;5013147;28;19929;-43
2022/09/23 04:16:01;;;;;;;;;;;;;;;3.92;100.00;98525.03;5001593;28;20364;-43
2022/09/23 04:18:32;;;;;;;;;;;;;;;3.89;100.00;98522.50;5019511;28;20946;-43
2022/09/23 04:21:00;;;;;;;;;;;;;;;3.86;100.00;98520.00;5007226;28;20058;-43
2022/09/23 04:23:32;;;;;;;;;;;;;;;3.93;100.00;98522.38;5009388;28;20337;-42
2022/09/23 04:26:03;;;;;;;;;;;;;;;3.89;100.00;98530.31;4993737;28;20356;-42
2022/09/23 04:28:35;;;;;;;;;;;;;;;3.82;100.00;98521.84;5017668;28;19925;-42
2022/09/23 04:31:06;;;;;;;;;;;;;;;3.88;100.00;98523.41;5019668;28;20292;-43
2022/09/23 04:33:36;;;;;;;;;;;;;;;3.90;100.00;98527.66;5009531;28;19968;-42
2022/09/23 04:36:03;;;;;;;;;;;;;;;3.90;100.00;98521.63;5023440;28;20117;-43
2022/09/23 04:38:31;;;;;;;;;;;;;;;4.02;100.00;98527.28;5026887;28;19925;-43
2022/09/23 04:40:58;;;;;;;;;;;;;;;4.01;100.00;98529.97;5013092;28;20299;-43
2022/09/23 04:43:25;;;;;;;;;;;;;;;3.93;100.00;98530.19;5028234;28;19925;-45
2022/09/23 04:45:59;;;;;;;;;;;;;;;3.95;100.00;98530.16;5019440;28;19933;-45
2022/09/23 04:48:26;;;;;;;;;;;;;;;3.87;100.00;98535.56;5023857;28;19932;-43
2022/09/23 04:50:54;;;;;;;;;;;;;;;3.98;100.00;98528.28;5026313;28;19931;-43
2022/09/23 04:53:21;;;;;;;;;;;;;;;3.86;100.00;98526.06;5019439;28;19925;-44
2022/09/23 04:55:49;;;;;;;;;;;;;;;3.97;100.00;98533.53;5002475;28;19930;-47
2022/09/23 04:58:16;;;;;;;;;;;;;;;4.20;100.00;98531.94;5014901;28;20103;-43
2022/09/23 05:00:43;;;;;;;;;;;;;;;4.21;100.00;98525.84;5018166;28;19956;-43
2022/09/23 05:03:12;;;;;;;;;;;;;;;4.23;100.00;98520.59;5017037;28;19952;-43
2022/09/23 05:05:39;;;;;;;;;;;;;;;4.19;100.00;98529.38;5013220;28;19925;-43
2022/09/23 05:08:09;;;;;;;;;;;;;;;4.18;100.00;98533.75;5015826;28;20211;-43
2022/09/23 05:10:36;;;;;;;;;;;;;;;4.25;100.00;98537.03;5007523;28;20452;-43
2022/09/23 05:13:03;;;;;;;;;;;;;;;4.26;100.00;98538.72;5004075;28;20401;-43
2022/09/23 05:15:31;;;;;;;;;;;;;;;4.33;100.00;98535.03;5015107;28;19932;-44
2022/09/23 05:17:58;;;;;;;;;;;;;;;4.31;100.00;98539.44;4987540;28;19930;-44
2022/09/23 05:20:26;;;;;;;;;;;;;;;4.36;100.00;98541.00;4996590;28;19930;-47
2022/09/23 05:22:54;;;;;;;;;;;;;;;4.39;100.00;98540.06;4997503;28;19922;-43
2022/09/23 05:25:23;;;;;;;;;;;;;;;4.35;100.00;98541.06;4997934;28;19929;-43
2022/09/23 05:27:51;;;;;;;;;;;;;;;4.36;100.00;98547.97;4996372;28;20032;-48
2022/09/23 05:30:18;;;;;;;;;;;;;;;4.41;100.00;98541.69;4995197;28;20096;-45
2022/09/23 05:32:46;;;;;;;;;;;;;;;4.50;100.00;98537.97;4996614;28;19926;-44
2022/09/23 05:35:13;;;;;;;;;;;;;;;4.49;100.00;98544.06;4996260;28;20369;-43
2022/09/23 05:37:43;;;;;;;;;;;;;;;4.60;100.00;98541.97;4999035;28;20376;-44
2022/09/23 05:40:10;;;;;;;;;;;;;;;4.75;100.00;98551.91;5005844;28;19926;-44
2022/09/23 05:42:37;;;;;;;;;;;;;;;4.77;100.00;98549.25;5004462;28;19933;-47
2022/09/23 05:45:06;;;;;;;;;;;;;;;4.88;100.00;98547.97;5005470;28;19933;-45
2022/09/23 05:47:33;;;;;;;;;;;;;;;4.99;100.00;98553.69;5017686;28;20003;-45
2022/09/23 05:50:00;;;;;;;;;;;;;;;4.96;100.00;98550.34;5014589;28;19944;-45
2022/09/23 05:52:28;;;;;;;;;;;;;;;4.91;100.00;98547.88;5015123;28;19925;-52
2022/09/23 05:54:56;;;;;;;;;;;;;;;5.12;100.00;98548.91;5013391;28;19933;-45
2022/09/23 05:57:23;;;;;;;;;;;;;;;5.32;100.00;98549.91;5019594;28;19925;-46
2022/09/23 05:59:51;;;;;;;;;;;;;;;5.36;100.00;98548.06;5011816;28;20474;-48
2022/09/23 06:02:18;;;;;;;;;;;;;;;5.46;100.00;98555.50;5009234;28;20388;-46
2022/09/23 06:04:45;;;;;;;;;;;;;;;5.52;100.00;98547.47;5014412;28;19929;-45
2022/09/23 06:07:12;;;;;;;;;;;;;;;5.52;100.00;98552.69;5020924;28;19929;-46
2022/09/23 06:09:41;;;;;;;;;;;;;;;5.58;100.00;98549.84;5004428;28;19948;-45
2022/09/23 06:12:09;;;;;;;;;;;;;;;5.69;100.00;98547.69;5000528;28;19925;-46
2022/09/23 06:14:37;;;;;;;;;;;;;;;5.80;100.00;98547.28;5004805;28;19925;-46
2022/09/23 06:17:04;;;;;;;;;;;;;;;5.77;100.00;98542.19;4994119;28;19978;-47
2022/09/23 06:19:31;;;;;;;;;;;;;;;5.81;100.00;98544.63;4993104;28;20083;-44
2022/09/23 06:21:58;;;;;;;;;;;;;;;5.85;100.00;98543.59;5014800;28;20120;-46
2022/09/23 06:24:26;;;;;;;;;;;;;;;5.97;100.00;98550.16;5015447;28;19984;-45
2022/09/23 06:26:53;;;;;;;;;;;;;;;6.10;100.00;98541.81;5009979;28;20273;-45
2022/09/23 06:29:21;;;;;;;;;;;;;;;6.21;100.00;98544.84;5011584;28;20357;-45
2022/09/23 06:31:49;;;;;;;;;;;;;;;6.19;100.00;98543.22;5012058;28;19929;-46
2022/09/23 06:34:16;;;;;;;;;;;;;;;6.35;100.00;98546.91;5010022;28;19925;-47
2022/09/23 06:36:43;;;;;;;;;;;;;;;6.29;100.00;98555.84;5012409;28;20462;-46
2022/09/23 06:39:10;;;;;;;;;;;;;;;6.47;100.00;98552.53;5011870;28;19957;-46
2022/09/23 06:41:38;;;;;;;;;;;;;;;6.38;100.00;98549.41;4993684;28;19930;-47
2022/09/23 06:44:11;;;;;;;;;;;;;;;6.40;100.00;98548.44;5011715;28;20381;-47
2022/09/23 06:46:40;;;;;;;;;;;;;;;6.51;100.00;98553.28;5011887;28;19955;-47
2022/09/23 06:49:07;;;;;;;;;;;;;;;6.62;100.00;98551.91;5010656;28;19999;-47
2022/09/23 06:51:34;;;;;;;;;;;;;;;6.66;100.00;98556.09;5031150;28;20079;-47
2022/09/23 06:54:02;;;;;;;;;;;;;;;6.81;100.00;98558.13;5031497;28;19929;-46
2022/09/23 06:56:29;;;;;;;;;;;;;;;6.85;100.00;98567.53;5030826;28;19947;-47
2022/09/23 06:58:56;;;;;;;;;;;;;;;7.06;100.00;98563.19;5008108;28;19933;-47
2022/09/23 07:01:23;;;;;;;;;;;;;;;7.12;100.00;98558.53;5006210;28;20441;-47
2022/09/23 07:03:53;;;;;;;;;;;;;;;7.19;100.00;98570.47;5009416;28;20387;-47
2022/09/23 07:06:20;;;;;;;;;;;;;;;7.49;100.00;98563.03;5009461;28;19929;-51
2022/09/23 07:08:47;;;;;;;;;;;;;;;7.36;100.00;98562.72;5010989;28;20371;-50
2022/09/23 07:11:15;;;;;;;;;;;;;;;7.29;100.00;98566.53;5011296;28;19964;-48
2022/09/23 07:13:42;;;;;;;;;;;;;;;7.39;100.00;98564.38;5010362;28;19932;-52
2022/09/23 07:16:10;;;;;;;;;;;;;;;7.65;100.00;98569.34;5003311;28;19960;-49
2022/09/23 07:18:37;;;;;;;;;;;;;;;7.65;100.00;98564.09;5010987;28;19926;-48
2022/09/23 07:21:12;;;;;;;;;;;;;;;7.38;100.00;98566.13;5010519;28;20289;-46
2022/09/23 07:23:39;;;;;;;;;;;;;;;7.34;100.00;98574.19;5016760;28;20400;-46
2022/09/23 07:26:07;;;;;;;;;;;;;;;7.48;100.00;98577.06;5010772;28;20400;-50
2022/09/23 07:28:35;;;;;;;;;;;;;;;7.54;100.00;98569.78;5004529;28;19925;-49
2022/09/23 07:31:05;;;;;;;;;;;;;;;7.69;100.00;98571.72;5008997;28;20348;-50
2022/09/23 07:33:33;;;;;;;;;;;;;;;7.58;100.00;98567.91;5010605;28;19961;-49
2022/09/23 07:36:04;;;;;;;;;;;;;;;7.37;100.00;98572.28;5011097;28;19969;-47
2022/09/23 07:38:32;;;;;;;;;;;;;;;7.52;100.00;98579.47;5009084;28;20265;-49
2022/09/23 07:41:03;;;;;;;;;;;;;;;7.88;100.00;98582.28;5010946;28;20495;-49
2022/09/23 07:43:31;;;;;;;;;;;;;;;7.81;100.00;98571.25;5010444;28;20419;-47
2022/09/23 07:46:01;;;;;;;;;;;;;;;7.92;100.00;98569.00;4991364;28;19941;-47
2022/09/23 07:48:28;;;;;;;;;;;;;;;8.04;100.00;98567.56;5007679;28;20028;-48
2022/09/23 07:50:56;;;;;;;;;;;;;;;8.10;100.00;98567.28;5004926;28;19926;-48
2022/09/23 07:53:23;;;;;;;;;;;;;;;8.02;100.00;98564.19;5008375;28;19926;-48
2022/09/23 07:55:55;;;;;;;;;;;;;;;8.30;100.00;98572.44;5010387;28;20369;-47
2022/09/23 07:58:23;;;;;;;;;;;;;;;8.02;100.00;98561.56;5010013;28;19951;-45
2022/09/23 08:00:52;;;;;;;;;;;;;;;7.99;100.00;98565.19;5002766;28;19926;-46
2022/09/23 08:03:19;;;;;;;;;;;;;;;8.27;100.00;98563.91;5008842;28;20287;-42
2022/09/23 08:05:47;;;;;;;;;;;;;;;8.52;100.00;98553.97;5015131;28;19937;-44
2022/09/23 08:08:14;;;;;;;;;;;;;;;8.72;100.00;98548.59;5016217;28;20012;-50
2022/09/23 08:10:41;;;;;;;;;;;;;;;8.77;100.00;98549.22;5012368;28;20440;-45
2022/09/23 08:13:10;;;;;;;;;;;;;;;8.70;100.00;98553.91;5015681;28;20250;-47
2022/09/23 08:15:39;;;;;;;;;;;;;;;8.81;100.00;98550.78;5015495;28;19938;-48
2022/09/23 08:18:06;;;;;;;;;;;;;;;8.90;100.00;98556.44;5017056;28;19929;-46
2022/09/23 08:20:46;;;;;;;;;;;;;;;8.97;100.00;98557.84;5017934;28;19932;-45
2022/09/23 08:23:14;;;;;;;;;;;;;;;8.89;100.00;98549.47;5016390;28;19960;-47
2022/09/23 08:25:42;;;;;;;;;;;;;;;8.80;100.00;98547.31;5019739;28;20751;-48
2022/09/23 08:28:11;;;;;;;;;;;;;;;8.83;100.00;98555.03;5018739;28;19972;-49
2022/09/23 08:30:39;;;;;;;;;;;;;;;9.16;100.00;98547.25;5009445;28;19929;-46
2022/09/23 08:33:06;;;;;;;;;;;;;;;9.18;100.00;98550.66;5008051;28;20356;-47
2022/09/23 08:35:33;;;;;;;;;;;;;;;9.17;100.00;98549.81;5009432;28;20292;-46
2022/09/23 08:38:00;;;;;;;;;;;;;;;9.21;100.00;98535.59;5009932;28;19947;-45
2022/09/23 08:40:28;;;;;;;;;;;;;;;9.14;100.00;98541.25;5007817;28;19930;-46
2022/09/23 08:42:55;;;;;;;;;;;;;;;9.22;100.00;98539.91;5009907;28;19926;-46
2022/09/23 08:45:25;;;;;;;;;;;;;;;9.40;100.00;98539.00;5010155;28;19926;-45
2022/09/23 08:47:55;;;;;;;;;;;;;;;9.69;100.00;98532.22;5020818;28;19929;-48
2022/09/23 08:50:23;;;;;;;;;;;;;;;9.70;100.00;98534.78;5009770;28;19948;-46
2022/09/23 08:52:53;;;;;;;;;;;;;;;9.41;100.00;98538.09;5010010;28;19926;-46
2022/09/23 08:55:22;;;;;;;;;;;;;;;9.80;100.00;98536.00;5008355;28;19926;-47
2022/09/23 08:58:01;;;;;;;;;;;;;;;10.11;100.00;98537.84;5009723;28;19925;-46
2022/09/23 09:00:33;;;;;;;;;;;;;;;9.97;100.00;98533.34;5009682;28;19961;-47
2022/09/23 09:03:00;;;;;;;;;;;;;;;9.61;99.35;98537.03;5007872;28;20269;-46
2022/09/23 09:05:28;;;;;;;;;;;;;;;9.20;99.69;98548.78;5009725;28;20339;-46
2022/09/23 09:07:58;;;;;;;;;;;;;;;9.23;100.00;98546.03;5009497;28;19926;-48
2022/09/23 09:10:27;;;;;;;;;;;;;;;9.30;100.00;98552.66;5007403;28;19926;-46
2022/09/23 09:13:00;;;;;;;;;;;;;;;10.10;97.46;98539.59;5009798;28;20039;-47
2022/09/23 09:15:28;;;;;;;;;;;;;;;10.43;96.84;98543.03;5009422;28;19930;-47
2022/09/23 09:18:01;;;;;;;;;;;;;;;10.25;92.07;98533.50;5007745;28;19937;-46
2022/09/23 09:20:34;;;;;;;;;;;;;;;10.24;89.22;98536.22;5009614;28;19925;-47
2022/09/23 09:23:05;;;;;;;;;;;;;;;10.74;95.32;98534.28;5009525;28;20376;-46
2022/09/23 09:25:39;;;;;;;;;;;;;;;10.84;93.34;98535.47;5009136;28;19926;-46
2022/09/23 09:28:10;;;;;;;;;;;;;;;11.19;90.18;98523.72;4970115;28;20358;-46
2022/09/23 09:30:38;;;;;;;;;;;;;;;10.91;91.59;98526.28;5004591;28;20395;-46
2022/09/23 09:33:13;;;;;;;;;;;;;;;10.84;88.45;98527.56;5013397;28;20008;-45
2022/09/23 09:35:43;;;;;;;;;;;;;;;11.13;90.33;98522.31;5003145;28;19929;-45
2022/09/23 09:38:10;;;;;;;;;;;;;;;10.74;94.76;98523.75;4991940;28;19925;-44
2022/09/23 09:40:44;;;;;;;;;;;;;;;10.12;94.50;98521.13;5000670;28;19929;-45
2022/09/23 09:43:21;;;;;;;;;;;;;;;10.07;94.05;98523.16;5013260;28;19964;-44
2022/09/23 09:45:53;;;;;;;;;;;;;;;10.42;92.29;98515.03;5011459;28;20257;-44
2022/09/23 09:48:31;;;;;;;;;;;;;;;10.40;89.98;98516.06;5011097;28;19925;-44
2022/09/23 09:51:17;;;;;;;;;;;;;;;10.21;89.56;98512.75;5006244;28;19925;-46
2022/09/23 09:53:44;;;;;;;;;;;;;;;10.41;87.19;98510.72;5013075;28;19937;-45
2022/09/23 09:56:14;;;;;;;;;;;;;;;10.04;89.40;98504.91;5029849;28;19933;-45
2022/09/23 09:58:45;;;;;;;;;;;;;;;10.15;86.10;98505.19;5019444;28;19926;-46
2022/09/23 10:01:22;;;;;;;;;;;;;;;10.22;81.52;98503.91;5012630;28;19952;-46
2022/09/23 10:03:52;;;;;;;;;;;;;;;11.08;82.94;98502.44;5011012;28;20385;-45
2022/09/23 10:06:21;;;;;;;;;;;;;;;10.74;79.84;98486.91;5012320;28;19932;-45
2022/09/23 10:08:49;;;;;;;;;;;;;;;10.90;82.73;98488.56;5012265;28;19929;-45
2022/09/23 10:11:18;;;;;;;;;;;;;;;11.15;85.08;98491.47;5010498;28;20027;-45
2022/09/23 10:14:04;;;;;;;;;;;;;;;11.21;83.14;98477.91;5012398;28;19926;-45
2022/09/23 10:16:33;;;;;;;;;;;;;;;11.22;82.42;98476.16;4998872;28;20376;-44
2022/09/23 10:19:02;;;;;;;;;;;;;;;11.78;80.38;98477.97;5012091;28;19953;-46
2022/09/23 10:21:33;;;;;;;;;;;;;;;10.33;79.30;98483.13;5012402;28;19948;-48
2022/09/23 10:24:01;;;;;;;;;;;;;;;10.24;83.15;98481.84;5012007;28;19926;-46
2022/09/23 10:26:31;;;;;;;;;;;;;;;10.11;89.51;98487.88;5011845;28;20148;-44
2022/09/23 10:29:00;;;;;;;;;;;;;;;10.20;87.06;98482.97;5012107;28;19930;-44
2022/09/23 10:31:28;;;;;;;;;;;;;;;9.99;86.44;98483.31;5012154;28;19929;-45
2022/09/23 10:33:58;;;;;;;;;;;;;;;10.66;85.04;98482.03;5010772;28;19960;-45
2022/09/23 10:36:28;;;;;;;;;;;;;;;10.94;76.66;98476.06;5011724;28;19926;-47
2022/09/23 10:46:36;;;;;;;;;;;;;;;11.00;80.45;98475.72;5012095;28;19976;-44
2022/09/23 10:47:29;;;;;;;;;;;;;;;10.31;85.62;98469.19;5011329;28;20384;-44
2022/09/23 10:50:03;;;;;;;;;;;;;;;10.22;90.36;98473.19;5010415;28;19957;-46
2022/09/23 10:52:45;;;;;;;;;;;;;;;10.03;89.07;98474.31;5011959;28;19926;-45
2022/09/23 10:55:23;;;;;;;;;;;;;;;10.34;83.64;98469.03;5010067;28;20392;-44
2022/09/23 10:57:57;;;;;;;;;;;;;;;10.37;82.25;98467.09;5011641;28;19925;-44
2022/09/23 11:00:29;;;;;;;;;;;;;;;10.75;74.15;98462.28;5010226;28;20106;-45
2022/09/23 11:03:08;;;;;;;;;;;;;;;11.56;73.41;98459.97;5011263;28;20336;-46
2022/09/23 11:05:38;;;;;;;;;;;;;;;11.71;69.09;98453.75;5011722;28;19973;-45
2022/09/23 11:08:27;;;;;;;;;;;;;;;12.62;65.35;98457.56;5009858;28;19932;-45
2022/09/23 11:10:59;;;;;;;;;;;;;;;11.85;66.61;98458.19;4991766;28;20274;-44
2022/09/23 11:13:43;;;;;;;;;;;;;;;11.49;68.84;98463.94;4990273;28;19961;-44
2022/09/23 11:16:17;;;;;;;;;;;;;;;11.39;72.19;98452.28;4991884;28;19933;-44
2022/09/23 11:18:59;;;;;;;;;;;;;;;11.13;68.80;98451.19;5002467;28;20261;-44
2022/09/23 11:21:35;;;;;;;;;;;;;;;10.83;74.88;98453.03;5011382;28;19926;-44
2022/09/23 11:24:14;;;;;;;;;;;;;;;10.46;74.43;98452.56;5007601;28;19932;-46
2022/09/23 11:26:45;;;;;;;;;;;;;;;10.21;72.49;98453.09;5006009;28;20039;-44
2022/09/23 11:29:25;;;;;;;;;;;;;;;10.14;73.33;98459.63;5011015;28;19972;-44
2022/09/23 11:31:59;;;;;;;;;;;;;;;10.16;75.90;98449.88;5010797;28;19991;-44
2022/09/23 11:34:38;;;;;;;;;;;;;;;9.99;72.58;98442.09;5011883;28;20687;-46
2022/09/23 11:37:08;;;;;;;;;;;;;;;10.37;72.08;98453.09;5018034;28;19925;-45
2022/09/23 11:39:40;;;;;;;;;;;;;;;11.08;70.61;98433.97;5029165;28;20406;-45
2022/09/23 11:42:12;;;;;;;;;;;;;;;11.24;70.44;98432.97;5025829;28;19968;-47
2022/09/23 11:44:43;;;;;;;;;;;;;;;11.12;68.03;98428.44;5011743;28;20028;-45
2022/09/23 11:47:14;;;;;;;;;;;;;;;11.08;67.07;98431.34;5013015;28;20552;-46
2022/09/23 11:49:45;;;;;;;;;;;;;;;11.03;68.49;98418.44;5016954;28;20016;-46
2022/09/23 11:52:18;;;;;;;;;;;;;;;10.65;69.73;98424.28;5011074;28;19936;-45
2022/09/23 11:54:51;;;;;;;;;;;;;;;10.65;70.17;98421.66;5011953;28;19933;-46
2022/09/23 11:57:22;;;;;;;;;;;;;;;10.21;74.75;98431.22;5010137;28;20022;-46
2022/09/23 11:59:51;;;;;;;;;;;;;;;10.17;72.92;98425.28;5021477;28;19980;-46
2022/09/23 12:02:22;;;;;;;;;;;;;;;10.62;74.88;98427.09;5012893;28;19979;-45
2022/09/23 12:04:56;;;;;;;;;;;;;;;10.77;70.60;98418.31;5023901;28;20199;-45
2022/09/23 12:07:26;;;;;;;;;;;;;;;11.20;69.45;98420.06;5007657;28;19995;-48
2022/09/23 12:09:58;;;;;;;;;;;;;;;11.24;63.53;98408.44;5013053;28;19980;-47
2022/09/23 12:12:29;;;;;;;;;;;;;;;10.91;65.15;98402.56;5014250;28;19925;-46
2022/09/23 12:15:00;;;;;;;;;;;;;;;11.22;66.05;98402.41;5016782;28;19925;-46
2022/09/23 12:17:43;;;;;;;;;;;;;;;11.19;66.55;98398.16;5014970;28;20005;-47
2022/09/23 12:20:23;;;;;;;;;;;;;;;11.30;67.20;98392.25;5017079;28;19979;-48
2022/09/23 12:22:56;;;;;;;;;;;;;;;11.43;67.70;98393.19;5017035;28;19933;-47
2022/09/23 12:25:32;;;;;;;;;;;;;;;11.13;66.37;98392.44;5015253;28;19957;-45
2022/09/23 12:28:03;;;;;;;;;;;;;;;11.22;66.74;98384.81;5014261;28;19951;-47
2022/09/23 12:30:32;;;;;;;;;;;;;;;11.44;70.77;98381.69;5014838;28;19929;-46
2022/09/23 12:33:07;;;;;;;;;;;;;;;11.28;65.60;98373.88;5011943;28;20011;-48
2022/09/23 12:35:38;;;;;;;;;;;;;;;11.46;66.16;98379.84;5019352;28;19925;-50
2022/09/23 12:38:12;;;;;;;;;;;;;;;11.30;65.42;98364.13;5021808;28;19932;-50
2022/09/23 12:40:42;;;;;;;;;;;;;;;11.41;64.83;98368.72;5007183;28;20304;-46
2022/09/23 12:43:15;;;;;;;;;;;;;;;11.57;62.60;98372.09;4989880;28;19929;-46
2022/09/23 12:45:42;;;;;;;;;;;;;;;11.69;62.28;98375.75;5002239;28;19961;-47
2022/09/23 12:48:39;;;;;;;;;;;;;;;11.88;65.83;98370.97;5027195;28;20487;-46
2022/09/23 12:51:14;;;;;;;;;;;;;;;11.38;62.72;98371.53;5026861;28;19925;-47
2022/09/23 12:53:57;;;;;;;;;;;;;;;11.33;61.38;98369.22;5026457;28;20273;-49
2022/09/23 12:56:26;;;;;;;;;;;;;;;11.74;63.68;98361.31;5008950;28;20411;-46
2022/09/23 12:59:01;;;;;;;;;;;;;;;11.50;62.18;98360.25;5010705;28;19932;-48
2022/09/23 13:01:28;;;;;;;;;;;;;;;10.99;64.27;98355.56;5012179;28;19932;-46
2022/09/23 13:06:41;;;;;;;;;;;;;;;10.94;64.65;98352.34;5011866;28;20284;-47
2022/09/23 13:09:10;;;;;;;;;;;;;;;11.54;67.00;98345.94;5009880;28;19976;-49
2022/09/23 13:11:42;;;;;;;;;;;;;;;11.79;67.31;98347.84;5015943;28;20407;-48
2022/09/23 13:14:13;;;;;;;;;;;;;;;12.10;65.44;98335.25;5015403;28;19929;-46